Time;durP1;ratioP1;P1;durP2;ratioP2;P2;SDS_P1;SDS_P2;PMS_P1;PMS_P2;Temp;Humidity;BMP_temperature;BMP_pressure;BME280_temperature;BME280_humidity;BME280_pressure;Samples;Min_cycle;Max_cycle;Signal;HPM_P1;HPM_P2
2022/08/29 00:01:14;;;;;;;4.80;2.85;;;;;;;;;;5036239;28;20053;-51
2022/08/29 00:03:40;;;;;;;5.47;2.60;;;;;;;;;;5035762;28;20053;-48
2022/08/29 00:06:07;;;;;;;3.30;2.40;;;;;;;;;;5036443;28;20136;-49
2022/08/29 00:08:33;;;;;;;5.95;2.90;;;;;;;;;;5036527;28;20346;-49
2022/08/29 00:11:00;;;;;;;3.72;2.17;;;;;;;;;;5036324;28;20053;-49
2022/08/29 00:13:27;;;;;;;4.80;2.55;;;;;;;;;;5036581;28;20049;-49
2022/08/29 00:15:54;;;;;;;4.47;2.72;;;;;;;;;;5036377;28;20057;-48
2022/08/29 00:18:20;;;;;;;4.88;2.55;;;;;;;;;;5036269;28;20064;-50
2022/08/29 00:20:47;;;;;;;4.80;2.67;;;;;;;;;;5035877;28;20059;-49
2022/08/29 00:23:13;;;;;;;6.40;3.03;;;;;;;;;;5036309;28;20115;-47
2022/08/29 00:25:39;;;;;;;5.78;2.70;;;;;;;;;;5035130;28;20080;-50
2022/08/29 00:28:06;;;;;;;7.55;2.90;;;;;;;;;;5036000;28;20049;-48
2022/08/29 00:30:34;;;;;;;7.32;2.90;;;;;;;;;;5035041;28;20056;-48
2022/08/29 00:33:01;;;;;;;6.65;2.92;;;;;;;;;;5035691;28;20096;-50
2022/08/29 00:35:29;;;;;;;6.18;2.80;;;;;;;;;;5036054;28;20049;-51
2022/08/29 00:37:55;;;;;;;6.45;3.17;;;;;;;;;;5035431;28;20051;-48
2022/08/29 00:40:23;;;;;;;6.28;3.10;;;;;;;;;;5035479;28;20370;-51
2022/08/29 00:42:49;;;;;;;4.90;2.63;;;;;;;;;;5035779;28;20347;-50
2022/08/29 00:45:16;;;;;;;5.55;3.20;;;;;;;;;;5035832;28;20049;-50
2022/08/29 00:47:45;;;;;;;5.70;3.05;;;;;;;;;;5035379;28;20128;-51
2022/08/29 00:50:15;;;;;;;7.38;3.38;;;;;;;;;;5035373;28;20064;-48
2022/08/29 00:52:44;;;;;;;7.13;3.13;;;;;;;;;;5035709;28;20482;-49
2022/08/29 00:55:11;;;;;;;4.95;2.67;;;;;;;;;;5021008;28;20120;-49
2022/08/29 00:57:39;;;;;;;6.95;3.72;;;;;;;;;;5015585;28;20069;-48
2022/08/29 01:00:07;;;;;;;6.57;3.45;;;;;;;;;;5017981;28;20061;-49
2022/08/29 01:02:33;;;;;;;7.38;2.92;;;;;;;;;;5035562;28;20064;-50
2022/08/29 01:05:01;;;;;;;7.18;3.30;;;;;;;;;;5035571;28;20060;-49
2022/08/29 01:07:27;;;;;;;5.40;2.95;;;;;;;;;;5035418;28;20056;-52
2022/08/29 01:09:54;;;;;;;9.35;3.35;;;;;;;;;;5035345;28;20091;-52
2022/08/29 01:12:22;;;;;;;7.28;3.55;;;;;;;;;;5035220;28;20053;-53
2022/08/29 01:14:50;;;;;;;5.93;2.83;;;;;;;;;;5035469;28;20049;-49
2022/08/29 01:17:19;;;;;;;7.72;3.22;;;;;;;;;;5035029;28;20045;-50
2022/08/29 01:19:47;;;;;;;6.68;3.00;;;;;;;;;;5035324;28;20053;-50
2022/08/29 01:22:19;;;;;;;8.60;2.80;;;;;;;;;;5034858;28;20053;-52
2022/08/29 01:24:49;;;;;;;5.32;2.85;;;;;;;;;;5035216;28;20060;-49
2022/08/29 01:27:16;;;;;;;7.05;3.13;;;;;;;;;;5034957;28;20056;-52
2022/08/29 01:29:42;;;;;;;6.43;2.97;;;;;;;;;;5035074;28;20061;-53
2022/08/29 01:32:09;;;;;;;6.95;2.80;;;;;;;;;;5034655;28;20065;-49
2022/08/29 01:34:35;;;;;;;7.45;2.70;;;;;;;;;;5034964;28;20045;-52
2022/08/29 01:37:02;;;;;;;5.72;2.88;;;;;;;;;;5034596;28;20383;-50
2022/08/29 01:39:30;;;;;;;7.45;2.72;;;;;;;;;;5034740;28;20046;-52
2022/08/29 01:41:59;;;;;;;5.50;2.90;;;;;;;;;;5034669;28;20046;-50
2022/08/29 01:44:26;;;;;;;8.80;3.03;;;;;;;;;;5034803;28;20064;-52
2022/08/29 01:46:54;;;;;;;8.32;2.88;;;;;;;;;;5034261;28;20053;-52
2022/08/29 01:49:20;;;;;;;10.05;2.75;;;;;;;;;;5033565;28;20141;-52
2022/08/29 01:51:47;;;;;;;7.85;2.92;;;;;;;;;;5034212;28;20050;-49
2022/08/29 01:54:14;;;;;;;6.57;2.72;;;;;;;;;;5034378;28;20064;-49
2022/08/29 01:56:41;;;;;;;8.10;2.97;;;;;;;;;;5034324;28;20060;-51
2022/08/29 01:59:10;;;;;;;6.70;2.47;;;;;;;;;;5034647;28;20045;-51
2022/08/29 02:01:38;;;;;;;8.93;3.28;;;;;;;;;;5034184;28;20139;-53
2022/08/29 02:04:05;;;;;;;4.90;2.67;;;;;;;;;;5034420;28;20059;-49
2022/08/29 02:06:31;;;;;;;6.28;3.10;;;;;;;;;;5034352;28;20057;-52
2022/08/29 02:08:58;;;;;;;6.80;2.70;;;;;;;;;;5034185;28;20045;-52
2022/08/29 02:11:24;;;;;;;6.85;2.83;;;;;;;;;;5033988;28;20049;-50
2022/08/29 02:13:52;;;;;;;5.95;2.80;;;;;;;;;;5033815;28;20049;-49
2022/08/29 02:16:20;;;;;;;7.88;3.10;;;;;;;;;;5033888;28;20056;-52
2022/08/29 02:18:47;;;;;;;6.20;3.03;;;;;;;;;;5033923;28;20045;-49
2022/08/29 02:21:14;;;;;;;7.55;2.80;;;;;;;;;;5033824;28;20065;-51
2022/08/29 02:23:40;;;;;;;7.20;2.58;;;;;;;;;;5033330;28;20528;-51
2022/08/29 02:26:07;;;;;;;9.68;2.97;;;;;;;;;;5033681;28;20057;-52
2022/08/29 02:28:34;;;;;;;7.88;2.90;;;;;;;;;;5033450;28;20099;-49
2022/08/29 02:31:01;;;;;;;6.95;2.80;;;;;;;;;;5033474;28;20057;-49
2022/08/29 02:33:30;;;;;;;5.70;2.60;;;;;;;;;;5033238;28;20050;-51
2022/08/29 02:35:56;;;;;;;6.40;2.50;;;;;;;;;;5033766;28;20049;-50
2022/08/29 02:38:23;;;;;;;8.43;3.08;;;;;;;;;;5033456;28;20554;-52
2022/08/29 02:40:50;;;;;;;7.05;3.10;;;;;;;;;;5033340;28;20366;-51
2022/08/29 02:43:18;;;;;;;8.32;2.20;;;;;;;;;;5032953;28;20061;-51
2022/08/29 02:45:44;;;;;;;5.70;2.30;;;;;;;;;;5033761;28;20103;-53
2022/08/29 02:48:11;;;;;;;8.40;2.80;;;;;;;;;;5033476;28;20050;-51
2022/08/29 02:50:40;;;;;;;4.07;2.72;;;;;;;;;;5033238;28;20057;-53
2022/08/29 02:53:07;;;;;;;8.32;3.00;;;;;;;;;;5033442;28;20057;-52
2022/08/29 02:55:33;;;;;;;7.00;2.63;;;;;;;;;;5015805;28;20160;-49
2022/08/29 02:58:00;;;;;;;9.38;2.65;;;;;;;;;;5013589;28;20042;-52
2022/08/29 03:00:27;;;;;;;7.18;2.88;;;;;;;;;;5018297;28;20370;-49
2022/08/29 03:02:54;;;;;;;5.00;2.50;;;;;;;;;;5033297;28;20061;-52
2022/08/29 03:05:21;;;;;;;9.80;2.80;;;;;;;;;;5033280;28;20072;-52
2022/08/29 03:07:48;;;;;;;7.10;2.53;;;;;;;;;;5033070;28;20076;-50
2022/08/29 03:10:15;;;;;;;7.28;2.72;;;;;;;;;;5032896;28;20049;-53
2022/08/29 03:12:42;;;;;;;11.45;3.08;;;;;;;;;;5033281;28;20049;-50
2022/08/29 03:15:09;;;;;;;3.83;2.17;;;;;;;;;;5033297;28;20053;-52
2022/08/29 03:17:35;;;;;;;7.68;2.85;;;;;;;;;;5033099;28;20064;-49
2022/08/29 03:20:01;;;;;;;6.28;2.80;;;;;;;;;;5033108;28;20072;-51
2022/08/29 03:22:28;;;;;;;4.80;2.22;;;;;;;;;;5033233;28;20045;-49
2022/08/29 03:24:55;;;;;;;7.30;2.45;;;;;;;;;;5033248;28;20057;-49
2022/08/29 03:27:22;;;;;;;5.03;2.33;;;;;;;;;;5032786;28;20478;-49
2022/08/29 03:29:49;;;;;;;5.88;2.80;;;;;;;;;;5032592;28;20133;-51
2022/08/29 03:32:15;;;;;;;5.45;2.55;;;;;;;;;;5032713;28;20061;-50
2022/08/29 03:34:41;;;;;;;6.53;2.25;;;;;;;;;;5033086;28;20060;-50
2022/08/29 03:37:07;;;;;;;4.03;2.00;;;;;;;;;;5032785;28;20489;-52
2022/08/29 03:39:35;;;;;;;8.10;2.63;;;;;;;;;;5032665;28;20076;-50
2022/08/29 03:42:02;;;;;;;6.63;2.55;;;;;;;;;;5032918;28;20064;-51
2022/08/29 03:44:28;;;;;;;5.00;2.20;;;;;;;;;;5032689;28;20372;-48
2022/08/29 03:46:55;;;;;;;6.75;2.55;;;;;;;;;;5032829;28;20061;-49
2022/08/29 03:49:22;;;;;;;6.10;2.70;;;;;;;;;;5032092;28;20505;-49
2022/08/29 03:51:48;;;;;;;5.72;2.47;;;;;;;;;;5032617;28;20095;-49
2022/08/29 03:54:15;;;;;;;5.43;2.47;;;;;;;;;;5025734;28;20132;-53
2022/08/29 03:56:41;;;;;;;5.82;2.13;;;;;;;;;;5012889;28;20053;-48
2022/08/29 03:59:10;;;;;;;7.70;2.65;;;;;;;;;;5012586;28;20065;-48
2022/08/29 04:01:36;;;;;;;2.90;1.67;;;;;;;;;;5026944;28;20391;-49
2022/08/29 04:04:03;;;;;;;5.80;2.38;;;;;;;;;;5032156;28;20140;-49
2022/08/29 04:06:29;;;;;;;6.88;2.47;;;;;;;;;;5032379;28;20462;-48
2022/08/29 04:08:56;;;;;;;5.40;1.90;;;;;;;;;;5032628;28;20041;-48
2022/08/29 04:11:23;;;;;;;5.07;2.47;;;;;;;;;;5032646;28;20049;-49
2022/08/29 04:13:49;;;;;;;5.22;2.42;;;;;;;;;;5036045;28;20053;-50
2022/08/29 04:16:18;;;;;;;5.10;2.88;;;;;;;;;;5036282;28;20068;-48
2022/08/29 04:18:44;;;;;;;6.53;2.90;;;;;;;;;;5036181;28;20111;-48
2022/08/29 04:21:11;;;;;;;10.48;2.72;;;;;;;;;;5036064;28;20353;-49
2022/08/29 04:23:38;;;;;;;6.25;2.97;;;;;;;;;;5036022;28;20405;-49
2022/08/29 04:26:04;;;;;;;9.40;3.10;;;;;;;;;;5036271;28;20060;-48
2022/08/29 04:28:31;;;;;;;6.80;2.78;;;;;;;;;;5035967;28;20498;-49
2022/08/29 04:30:57;;;;;;;9.20;3.80;;;;;;;;;;5036000;28;20045;-49
2022/08/29 04:33:26;;;;;;;7.70;3.22;;;;;;;;;;5035566;28;20160;-49
2022/08/29 04:35:53;;;;;;;6.25;2.65;;;;;;;;;;5035478;28;20057;-48
2022/08/29 04:38:19;;;;;;;7.20;2.95;;;;;;;;;;5035834;28;20073;-51
2022/08/29 04:40:46;;;;;;;9.65;2.90;;;;;;;;;;5035904;28;20129;-49
2022/08/29 04:43:12;;;;;;;7.50;3.10;;;;;;;;;;5035592;28;20486;-49
2022/08/29 04:45:39;;;;;;;6.00;2.58;;;;;;;;;;5035776;28;20077;-48
2022/08/29 04:48:06;;;;;;;8.15;3.10;;;;;;;;;;5035909;28;20658;-51
2022/08/29 04:50:34;;;;;;;6.53;3.03;;;;;;;;;;5035449;28;20057;-49
2022/08/29 04:53:01;;;;;;;9.68;2.80;;;;;;;;;;5035509;28;20446;-50
2022/08/29 04:55:28;;;;;;;7.45;2.65;;;;;;;;;;5018383;28;20525;-53
2022/08/29 04:57:56;;;;;;;7.18;3.03;;;;;;;;;;5016003;28;20057;-49
2022/08/29 05:00:24;;;;;;;7.75;3.10;;;;;;;;;;5020159;28;20056;-51
2022/08/29 05:02:51;;;;;;;6.03;3.10;;;;;;;;;;5035477;28;20058;-49
2022/08/29 05:05:18;;;;;;;7.22;3.28;;;;;;;;;;5035125;28;20351;-49
2022/08/29 05:07:45;;;;;;;6.80;3.38;;;;;;;;;;5035558;28;20064;-52
2022/08/29 05:10:13;;;;;;;7.28;3.38;;;;;;;;;;5035474;28;20053;-52
2022/08/29 05:12:39;;;;;;;12.18;3.40;;;;;;;;;;5035271;28;20080;-49
2022/08/29 05:15:06;;;;;;;6.40;2.92;;;;;;;;;;5035345;28;20089;-52
2022/08/29 05:17:32;;;;;;;9.85;3.33;;;;;;;;;;5035061;28;20045;-49
2022/08/29 05:19:59;;;;;;;7.80;3.40;;;;;;;;;;5034870;28;20365;-52
2022/08/29 05:22:25;;;;;;;7.00;2.88;;;;;;;;;;5035286;28;20061;-53
2022/08/29 05:24:55;;;;;;;10.77;2.50;;;;;;;;;;5034941;28;20064;-49
2022/08/29 05:27:22;;;;;;;5.55;2.75;;;;;;;;;;5035286;28;20107;-50
2022/08/29 05:29:50;;;;;;;6.22;3.13;;;;;;;;;;5034726;28;20041;-52
2022/08/29 05:32:17;;;;;;;8.18;3.60;;;;;;;;;;5034394;28;20065;-52
2022/08/29 05:34:44;;;;;;;5.85;2.90;;;;;;;;;;5034746;28;20057;-50
2022/08/29 05:37:13;;;;;;;5.55;2.58;;;;;;;;;;5035057;28;20049;-52
2022/08/29 05:39:39;;;;;;;7.60;2.88;;;;;;;;;;5034723;28;20064;-49
2022/08/29 05:42:08;;;;;;;7.00;2.75;;;;;;;;;;5034354;28;20376;-50
2022/08/29 05:44:35;;;;;;;4.68;2.53;;;;;;;;;;5034363;28;20053;-49
2022/08/29 05:47:02;;;;;;;9.95;2.58;;;;;;;;;;5034224;28;20073;-53
2022/08/29 05:49:28;;;;;;;5.80;2.08;;;;;;;;;;5034347;28;20120;-51
2022/08/29 05:51:56;;;;;;;5.43;2.65;;;;;;;;;;5020232;28;20065;-49
2022/08/29 05:54:23;;;;;;;6.40;2.97;;;;;;;;;;5026476;28;20049;-52
2022/08/29 05:56:49;;;;;;;4.80;2.30;;;;;;;;;;5014746;28;20060;-50
2022/08/29 05:59:17;;;;;;;5.47;2.35;;;;;;;;;;5014287;28;20395;-49
2022/08/29 06:01:45;;;;;;;4.20;2.20;;;;;;;;;;5029963;28;20053;-50
2022/08/29 06:04:11;;;;;;;5.25;2.60;;;;;;;;;;5034110;28;20053;-53
2022/08/29 06:06:39;;;;;;;6.28;2.28;;;;;;;;;;5034294;28;20059;-51
2022/08/29 06:09:05;;;;;;;8.70;2.72;;;;;;;;;;5034160;28;20072;-52
2022/08/29 06:11:33;;;;;;;6.97;2.63;;;;;;;;;;5034080;28;20144;-50
2022/08/29 06:14:00;;;;;;;4.72;1.95;;;;;;;;;;5034226;28;20053;-51
2022/08/29 06:16:29;;;;;;;8.98;2.22;;;;;;;;;;5033860;28;20434;-49
2022/08/29 06:18:55;;;;;;;6.93;2.38;;;;;;;;;;5033636;28;20654;-53
2022/08/29 06:21:22;;;;;;;5.47;2.53;;;;;;;;;;5033705;28;20500;-51
2022/08/29 06:23:48;;;;;;;11.60;2.83;;;;;;;;;;5033993;28;20064;-51
2022/08/29 06:26:15;;;;;;;5.78;1.92;;;;;;;;;;5033423;28;20057;-52
2022/08/29 06:28:44;;;;;;;5.75;2.08;;;;;;;;;;4994857;28;20057;-52
2022/08/29 06:31:11;;;;;;;5.60;1.75;;;;;;;;;;5014506;28;20034;-53
2022/08/29 06:33:38;;;;;;;5.28;2.10;;;;;;;;;;5032073;28;20049;-49
2022/08/29 06:36:06;;;;;;;43.90;3.25;;;;;;;;;;5033079;28;20049;-50
2022/08/29 06:38:32;;;;;;;5.07;1.58;;;;;;;;;;5022022;28;20068;-49
2022/08/29 06:41:02;;;;;;;6.75;1.83;;;;;;;;;;5032758;28;20045;-53
2022/08/29 06:43:28;;;;;;;4.13;1.20;;;;;;;;;;5033039;28;20470;-51
2022/08/29 06:45:54;;;;;;;4.57;1.48;;;;;;;;;;5032875;28;20046;-51
2022/08/29 06:48:20;;;;;;;3.88;1.50;;;;;;;;;;5030767;28;20054;-53
2022/08/29 06:50:48;;;;;;;4.03;1.52;;;;;;;;;;5031237;28;20049;-54
2022/08/29 06:53:14;;;;;;;5.00;1.65;;;;;;;;;;5032924;28;20060;-54
2022/08/29 06:55:41;;;;;;;4.85;1.50;;;;;;;;;;5032492;28;20049;-54
2022/08/29 06:58:07;;;;;;;7.90;1.60;;;;;;;;;;5031198;28;20061;-51
2022/08/29 07:00:33;;;;;;;7.75;1.40;;;;;;;;;;5032232;28;20042;-54
2022/08/29 07:02:59;;;;;;;12.82;1.80;;;;;;;;;;5032578;28;20057;-53
2022/08/29 07:05:26;;;;;;;4.38;1.40;;;;;;;;;;5031542;28;20482;-51
2022/08/29 07:07:53;;;;;;;10.65;1.75;;;;;;;;;;5028418;28;20544;-54
2022/08/29 07:10:20;;;;;;;2.95;1.30;;;;;;;;;;5016645;28;20053;-50
2022/08/29 07:12:46;;;;;;;29.70;5.22;;;;;;;;;;5027178;28;20056;-52
2022/08/29 07:15:12;;;;;;;5.10;1.75;;;;;;;;;;5033515;28;20068;-50
2022/08/29 07:17:39;;;;;;;5.53;1.40;;;;;;;;;;5032751;28;20560;-50
2022/08/29 07:20:06;;;;;;;4.00;1.40;;;;;;;;;;5031827;28;20053;-51
2022/08/29 07:22:34;;;;;;;3.25;1.20;;;;;;;;;;5032231;28;20128;-49
2022/08/29 07:25:02;;;;;;;6.53;1.70;;;;;;;;;;5031231;28;20050;-50
2022/08/29 07:27:28;;;;;;;4.35;1.35;;;;;;;;;;5032221;28;20136;-50
2022/08/29 07:29:55;;;;;;;7.78;1.55;;;;;;;;;;5031826;28;20126;-49
2022/08/29 07:32:21;;;;;;;6.55;1.92;;;;;;;;;;5031839;28;20068;-52
2022/08/29 07:34:48;;;;;;;5.82;1.35;;;;;;;;;;5032166;28;20076;-52
2022/08/29 07:37:14;;;;;;;3.53;1.30;;;;;;;;;;5032030;28;20406;-54
2022/08/29 07:39:41;;;;;;;7.60;1.65;;;;;;;;;;5031493;28;20049;-52
2022/08/29 07:42:08;;;;;;;4.22;1.20;;;;;;;;;;5031997;28;20496;-51
2022/08/29 07:44:35;;;;;;;6.00;1.30;;;;;;;;;;5032333;28;20093;-52
2022/08/29 07:47:02;;;;;;;5.70;1.20;;;;;;;;;;5032566;28;20456;-53
2022/08/29 07:49:30;;;;;;;3.67;1.27;;;;;;;;;;5035175;28;20045;-52
2022/08/29 07:51:57;;;;;;;2.35;0.93;;;;;;;;;;5019538;28;20041;-53
2022/08/29 07:54:24;;;;;;;3.03;1.00;;;;;;;;;;5035885;28;20045;-53
2022/08/29 07:56:51;;;;;;;7.05;1.10;;;;;;;;;;5035720;28;20079;-52
2022/08/29 07:59:20;;;;;;;8.07;1.40;;;;;;;;;;5035435;28;20065;-53
2022/08/29 08:01:47;;;;;;;3.08;1.00;;;;;;;;;;5034357;28;20405;-53
2022/08/29 08:04:14;;;;;;;7.40;1.33;;;;;;;;;;5035069;28;20057;-50
2022/08/29 08:06:41;;;;;;;8.48;1.13;;;;;;;;;;5034936;28;20058;-52
2022/08/29 08:09:07;;;;;;;5.90;1.40;;;;;;;;;;5035676;28;20064;-51
2022/08/29 08:11:34;;;;;;;2.95;0.98;;;;;;;;;;5035470;28;20053;-51
2022/08/29 08:14:01;;;;;;;2.55;1.35;;;;;;;;;;5037172;28;20057;-51
2022/08/29 08:16:29;;;;;;;3.60;1.10;;;;;;;;;;5035286;28;20148;-54
2022/08/29 08:18:56;;;;;;;5.10;1.10;;;;;;;;;;5035152;28;20045;-54
2022/08/29 08:21:23;;;;;;;5.07;1.83;;;;;;;;;;5035226;28;20054;-51
2022/08/29 08:23:51;;;;;;;5.53;1.27;;;;;;;;;;5035093;28;20159;-54
2022/08/29 08:26:17;;;;;;;3.15;1.17;;;;;;;;;;5034909;28;20068;-51
2022/08/29 08:28:43;;;;;;;2.28;1.10;;;;;;;;;;5035164;28;20390;-51
2022/08/29 08:31:11;;;;;;;3.78;1.10;;;;;;;;;;5034956;28;20068;-52
2022/08/29 08:33:39;;;;;;;4.43;1.30;;;;;;;;;;5035326;28;20533;-51
2022/08/29 08:36:12;;;;;;;4.80;1.00;;;;;;;;;;5034565;28;20042;-51
2022/08/29 08:38:39;;;;;;;2.88;0.90;;;;;;;;;;5035267;28;20058;-52
2022/08/29 08:41:09;;;;;;;3.92;1.33;;;;;;;;;;5035350;28;20053;-52
2022/08/29 08:43:41;;;;;;;7.03;1.00;;;;;;;;;;5034765;28;20061;-52
2022/08/29 08:46:07;;;;;;;3.78;0.70;;;;;;;;;;5033839;28;20049;-51
2022/08/29 08:48:36;;;;;;;6.45;1.00;;;;;;;;;;5034289;28;20379;-55
2022/08/29 08:51:07;;;;;;;6.07;0.90;;;;;;;;;;5035457;28;20053;-55
2022/08/29 08:53:34;;;;;;;0.98;0.70;;;;;;;;;;5034849;28;20053;-55
2022/08/29 08:56:05;;;;;;;10.68;1.27;;;;;;;;;;5031566;28;20061;-55
2022/08/29 08:58:32;;;;;;;4.07;0.82;;;;;;;;;;5033920;28;20484;-51
2022/08/29 09:01:01;;;;;;;3.60;0.88;;;;;;;;;;5034582;28;20383;-54
2022/08/29 09:03:39;;;;;;;10.43;1.13;;;;;;;;;;5027205;28;20054;-52
2022/08/29 09:06:10;;;;;;;3.60;1.00;;;;;;;;;;5024851;28;20049;-51
2022/08/29 09:08:44;;;;;;;4.72;1.48;;;;;;;;;;5035836;28;20059;-51
2022/08/29 09:11:15;;;;;;;6.50;0.93;;;;;;;;;;5034147;28;20137;-53
2022/08/29 09:13:46;;;;;;;5.20;1.15;;;;;;;;;;5036725;28;20049;-55
2022/08/29 09:16:17;;;;;;;15.32;1.83;;;;;;;;;;5036886;28;20057;-54
2022/08/29 09:18:44;;;;;;;8.75;1.13;;;;;;;;;;5035877;28;20052;-54
2022/08/29 09:21:13;;;;;;;18.10;1.42;;;;;;;;;;5035153;28;20061;-52
2022/08/29 09:23:41;;;;;;;5.22;1.20;;;;;;;;;;5040758;28;20050;-52
2022/08/29 09:26:08;;;;;;;1.90;1.00;;;;;;;;;;5035261;28;20049;-50
2022/08/29 09:28:34;;;;;;;7.40;1.30;;;;;;;;;;5035231;28;20045;-54
2022/08/29 09:31:21;;;;;;;7.45;1.17;;;;;;;;;;5035404;28;20077;-48
2022/08/29 09:33:49;;;;;;;1.85;0.80;;;;;;;;;;5034298;28;20065;-49
2022/08/29 09:36:32;;;;;;;4.45;0.90;;;;;;;;;;5034598;28;20140;-47
2022/08/29 09:39:09;;;;;;;4.60;1.10;;;;;;;;;;5031666;28;20091;-48
2022/08/29 09:41:35;;;;;;;2.08;0.80;;;;;;;;;;5030847;28;20050;-48
2022/08/29 09:44:04;;;;;;;5.45;1.00;;;;;;;;;;5023706;28;20100;-48
2022/08/29 09:46:30;;;;;;;2.33;0.90;;;;;;;;;;5023384;28;20324;-49
2022/08/29 09:49:11;;;;;;;2.28;1.00;;;;;;;;;;5025663;28;20053;-46
2022/08/29 09:51:40;;;;;;;2.10;0.80;;;;;;;;;;5025950;28;20077;-46
2022/08/29 09:54:10;;;;;;;3.28;0.80;;;;;;;;;;5031238;28;20394;-47
2022/08/29 09:56:37;;;;;;;8.65;1.27;;;;;;;;;;5031540;28;20099;-48
2022/08/29 09:59:10;;;;;;;3.70;1.15;;;;;;;;;;5034381;28;20041;-47
2022/08/29 10:01:37;;;;;;;2.67;0.80;;;;;;;;;;5034527;28;20049;-46
2022/08/29 10:04:06;;;;;;;7.18;1.33;;;;;;;;;;5034112;28;20046;-47
2022/08/29 10:06:33;;;;;;;9.07;2.03;;;;;;;;;;5036933;28;20158;-47
2022/08/29 10:09:05;;;;;;;5.32;1.23;;;;;;;;;;5035634;28;20060;-48
2022/08/29 10:11:34;;;;;;;8.88;1.55;;;;;;;;;;5031713;28;20044;-47
2022/08/29 10:14:03;;;;;;;22.27;2.47;;;;;;;;;;5034207;28;20056;-48
2022/08/29 10:16:33;;;;;;;4.22;1.17;;;;;;;;;;5029628;28;20054;-51
2022/08/29 10:19:00;;;;;;;2.78;0.90;;;;;;;;;;5035100;28;20057;-48
2022/08/29 10:21:33;;;;;;;23.35;2.20;;;;;;;;;;5035662;28;20061;-48
2022/08/29 10:24:08;;;;;;;4.53;1.25;;;;;;;;;;5027104;28;20049;-48
2022/08/29 10:26:39;;;;;;;4.25;1.00;;;;;;;;;;5036057;28;20058;-48
2022/08/29 10:29:10;;;;;;;4.45;1.00;;;;;;;;;;5035442;28;20455;-48
2022/08/29 10:31:40;;;;;;;4.75;1.02;;;;;;;;;;5035846;28;20064;-48
2022/08/29 10:34:13;;;;;;;9.65;1.33;;;;;;;;;;5031006;28;20132;-48
2022/08/29 10:36:44;;;;;;;6.55;1.33;;;;;;;;;;5030201;28;20056;-48
2022/08/29 10:39:14;;;;;;;6.40;1.17;;;;;;;;;;5025903;28;20049;-48
2022/08/29 10:41:49;;;;;;;5.50;1.20;;;;;;;;;;5028830;28;20037;-48
2022/08/29 10:44:21;;;;;;;2.08;0.93;;;;;;;;;;5033575;28;20055;-48
2022/08/29 10:46:56;;;;;;;9.32;1.63;;;;;;;;;;5034239;28;20049;-47
2022/08/29 10:49:22;;;;;;;;;;;;;;;;;;5034979;28;20088;-48
2022/08/29 10:51:56;;;;;;;2.95;1.00;;;;;;;;;;5033815;28;19921;-47
2022/08/29 10:54:29;;;;;;;6.07;1.20;;;;;;;;;;5034132;28;20073;-49
2022/08/29 10:56:58;;;;;;;12.63;2.08;;;;;;;;;;5030565;28;20053;-48
2022/08/29 10:59:31;;;;;;;11.63;1.45;;;;;;;;;;5029672;28;20093;-49
2022/08/29 11:02:01;;;;;;;12.60;1.60;;;;;;;;;;5033650;28;20069;-48
2022/08/29 11:04:33;;;;;;;8.63;1.73;;;;;;;;;;5028680;28;20053;-48
2022/08/29 11:07:02;;;;;;;3.15;1.02;;;;;;;;;;5034601;28;20057;-47
2022/08/29 11:09:33;;;;;;;5.78;1.20;;;;;;;;;;5032056;28;20119;-47
2022/08/29 11:12:04;;;;;;;8.07;1.10;;;;;;;;;;5018914;28;20328;-48
2022/08/29 11:14:35;;;;;;;12.85;1.30;;;;;;;;;;5034121;28;20148;-47
2022/08/29 11:17:02;;;;;;;5.75;0.95;;;;;;;;;;5033413;28;20549;-47
2022/08/29 11:19:31;;;;;;;6.05;0.80;;;;;;;;;;5034491;28;20053;-47
2022/08/29 11:22:00;;;;;;;7.68;1.20;;;;;;;;;;5033515;28;20475;-47
2022/08/29 11:24:32;;;;;;;10.73;1.50;;;;;;;;;;5034309;28;20064;-46
2022/08/29 11:27:03;;;;;;;2.38;0.95;;;;;;;;;;5028485;28;20096;-47
2022/08/29 11:29:32;;;;;;;11.40;1.30;;;;;;;;;;5034163;28;20054;-49
2022/08/29 11:32:07;;;;;;;3.60;1.20;;;;;;;;;;5032977;28;20470;-48
2022/08/29 11:34:40;;;;;;;1.85;0.70;;;;;;;;;;5032816;28;20060;-48
2022/08/29 11:37:28;;;;;;;2.83;0.80;;;;;;;;;;5032702;28;20053;-48
2022/08/29 11:39:57;;;;;;;12.93;1.55;;;;;;;;;;5032692;28;20127;-47
2022/08/29 11:42:28;;;;;;;4.78;1.20;;;;;;;;;;5032876;28;20096;-47
2022/08/29 11:44:56;;;;;;;6.45;1.00;;;;;;;;;;5031598;28;20406;-47
2022/08/29 11:47:33;;;;;;;7.30;1.75;;;;;;;;;;5033081;28;20443;-50
2022/08/29 11:50:03;;;;;;;4.40;1.00;;;;;;;;;;5032748;28;20050;-46
2022/08/29 11:52:29;;;;;;;11.73;1.30;;;;;;;;;;5033175;28;20045;-49
2022/08/29 11:55:16;;;;;;;8.82;1.40;;;;;;;;;;5033452;28;20522;-49
2022/08/29 11:57:49;;;;;;;9.80;1.38;;;;;;;;;;5033255;28;20049;-48
2022/08/29 12:00:27;;;;;;;4.63;1.08;;;;;;;;;;5031353;28;20065;-48
2022/08/29 12:02:54;;;;;;;5.55;1.20;;;;;;;;;;5029731;28;20060;-49
2022/08/29 12:05:41;;;;;;;4.32;0.90;;;;;;;;;;5032064;28;20053;-49
2022/08/29 12:08:13;;;;;;;7.15;1.20;;;;;;;;;;5017317;28;20054;-47
2022/08/29 12:10:50;;;;;;;3.40;1.38;;;;;;;;;;5031569;28;20071;-48
2022/08/29 12:13:46;;;;;;;4.38;1.00;;;;;;;;;;5032523;28;20136;-49
2022/08/29 12:16:24;;;;;;;2.60;0.98;;;;;;;;;;5032591;28;20103;-48
2022/08/29 12:18:53;;;;;;;10.18;1.45;;;;;;;;;;5032353;28;20049;-48
2022/08/29 12:21:43;;;;;;;26.80;2.70;;;;;;;;;;5033084;28;20062;-47
2022/08/29 12:24:24;;;;;;;4.53;1.13;;;;;;;;;;5019146;28;20145;-48
2022/08/29 12:26:51;;;;;;;5.53;1.40;;;;;;;;;;5030804;28;20118;-48
2022/08/29 12:29:20;;;;;;;17.90;2.75;;;;;;;;;;5028024;28;20175;-46
2022/08/29 12:32:01;;;;;;;5.40;1.30;;;;;;;;;;5031207;28;20058;-47
2022/08/29 12:34:34;;;;;;;5.60;1.15;;;;;;;;;;5022662;28;20124;-47
2022/08/29 12:37:10;;;;;;;10.27;1.65;;;;;;;;;;5025788;28;20591;-48
2022/08/29 12:39:44;;;;;;;11.85;1.40;;;;;;;;;;5026847;28;20049;-48
2022/08/29 12:42:20;;;;;;;5.78;1.35;;;;;;;;;;5021891;28;20073;-48
2022/08/29 12:44:57;;;;;;;5.85;1.30;;;;;;;;;;5029796;28;20053;-48
2022/08/29 12:47:25;;;;;;;8.48;1.48;;;;;;;;;;5038319;28;20144;-49
2022/08/29 12:49:54;;;;;;;3.22;1.08;;;;;;;;;;5038906;28;20406;-49
2022/08/29 12:52:22;;;;;;;3.35;0.95;;;;;;;;;;5037640;28;20171;-49
2022/08/29 12:54:50;;;;;;;3.78;0.80;;;;;;;;;;5035530;28;20053;-48
2022/08/29 12:57:18;;;;;;;18.42;2.42;;;;;;;;;;5035469;28;20466;-50
2022/08/29 12:59:53;;;;;;;5.72;1.27;;;;;;;;;;5038343;28;20053;-50
2022/08/29 13:02:24;;;;;;;5.72;1.50;;;;;;;;;;5037931;28;20063;-51
2022/08/29 13:04:50;;;;;;;5.65;1.13;;;;;;;;;;5037481;28;20059;-49
2022/08/29 13:07:17;;;;;;;6.10;1.98;;;;;;;;;;5034657;28;20052;-51
2022/08/29 13:09:50;;;;;;;7.07;1.23;;;;;;;;;;5034535;28;20060;-48
2022/08/29 13:12:18;;;;;;;2.90;1.33;;;;;;;;;;5034979;28;20119;-48
2022/08/29 13:14:56;;;;;;;2.47;1.23;;;;;;;;;;5035305;28;20049;-48
2022/08/29 13:17:24;;;;;;;3.03;1.40;;;;;;;;;;5034800;28;20056;-49
2022/08/29 13:20:08;;;;;;;5.00;1.63;;;;;;;;;;5035196;28;20140;-49
2022/08/29 13:22:34;;;;;;;4.90;1.58;;;;;;;;;;5002738;28;20136;-49
2022/08/29 13:25:02;;;;;;;3.15;1.13;;;;;;;;;;5034385;28;20111;-49
2022/08/29 13:27:28;;;;;;;3.63;1.30;;;;;;;;;;5035138;28;20156;-50
2022/08/29 13:30:06;;;;;;;3.00;1.10;;;;;;;;;;5038982;28;20053;-50
2022/08/29 13:32:34;;;;;;;2.47;1.30;;;;;;;;;;5031471;28;20053;-52
2022/08/29 13:35:02;;;;;;;3.50;1.10;;;;;;;;;;5022424;28;20069;-54
2022/08/29 13:37:30;;;;;;;3.65;1.33;;;;;;;;;;5035450;28;20068;-53
2022/08/29 13:39:56;;;;;;;2.42;1.30;;;;;;;;;;5035100;28;20053;-52
2022/08/29 13:42:29;;;;;;;4.75;2.10;;;;;;;;;;5035306;28;20049;-53
2022/08/29 13:45:13;;;;;;;1.90;1.10;;;;;;;;;;5033930;28;20046;-51
2022/08/29 13:47:42;;;;;;;3.13;1.13;;;;;;;;;;5035659;28;20050;-55
2022/08/29 13:50:10;;;;;;;4.63;1.35;;;;;;;;;;5035350;28;20136;-53
2022/08/29 13:52:36;;;;;;;2.28;1.20;;;;;;;;;;5034534;28;20045;-54
2022/08/29 13:55:03;;;;;;;4.05;0.95;;;;;;;;;;5032859;28;20072;-53
2022/08/29 13:57:30;;;;;;;4.85;1.48;;;;;;;;;;5032607;28;20049;-56
2022/08/29 13:59:57;;;;;;;3.22;0.90;;;;;;;;;;5023838;28;20064;-53
2022/08/29 14:02:24;;;;;;;2.95;1.17;;;;;;;;;;5034793;28;20477;-56
2022/08/29 14:04:51;;;;;;;2.15;1.20;;;;;;;;;;5034955;28;20060;-56
2022/08/29 14:07:18;;;;;;;2.88;1.15;;;;;;;;;;5034509;28;20451;-53
2022/08/29 14:09:45;;;;;;;2.05;1.00;;;;;;;;;;5035132;28;20410;-56
2022/08/29 14:12:12;;;;;;;2.47;1.00;;;;;;;;;;5033989;28;20394;-53
2022/08/29 14:14:39;;;;;;;3.20;1.10;;;;;;;;;;5030724;28;20102;-54
2022/08/29 14:17:05;;;;;;;1.77;0.95;;;;;;;;;;5020597;28;20076;-55
2022/08/29 14:19:33;;;;;;;2.90;1.10;;;;;;;;;;5022397;28;20053;-53
2022/08/29 14:22:00;;;;;;;2.60;0.93;;;;;;;;;;5030352;28;20091;-54
2022/08/29 14:24:26;;;;;;;4.00;0.93;;;;;;;;;;5033521;28;20049;-54
2022/08/29 14:26:53;;;;;;;3.05;1.23;;;;;;;;;;5033360;28;20056;-53
2022/08/29 14:29:20;;;;;;;5.63;1.20;;;;;;;;;;5033289;28;20088;-50
2022/08/29 14:31:46;;;;;;;4.93;1.10;;;;;;;;;;5033024;28;20496;-52
2022/08/29 14:34:12;;;;;;;2.40;1.00;;;;;;;;;;5027278;28;20265;-50
2022/08/29 14:36:40;;;;;;;2.10;1.20;;;;;;;;;;5033351;28;20137;-51
2022/08/29 14:39:06;;;;;;;2.72;0.98;;;;;;;;;;5033564;28;20049;-54
2022/08/29 14:41:33;;;;;;;2.70;0.95;;;;;;;;;;5033313;28;20148;-50
2022/08/29 14:43:59;;;;;;;2.92;1.00;;;;;;;;;;5032689;28;20045;-53
2022/08/29 14:46:27;;;;;;;2.28;0.95;;;;;;;;;;5033241;28;20072;-53
2022/08/29 14:48:53;;;;;;;2.50;0.90;;;;;;;;;;5032205;28;20378;-51
2022/08/29 14:51:20;;;;;;;4.38;1.00;;;;;;;;;;5032851;28;20141;-52